Time;durP1;ratioP1;P1;durP2;ratioP2;P2;SDS_P1;SDS_P2;PMS_P1;PMS_P2;Temp;Humidity;BMP_temperature;BMP_pressure;BME280_temperature;BME280_humidity;BME280_pressure;Samples;Min_cycle;Max_cycle;Signal;HPM_P1;HPM_P2
2021/01/06 00:00:16;;;;;;;115.00;69.10;;;51.40;2227.20;;;;;;4993549;28;20125;-75
2021/01/06 00:02:42;;;;;;;101.88;60.63;;;51.50;2227.20;;;;;;4993022;28;20034;-75
2021/01/06 00:05:11;;;;;;;99.00;62.92;;;51.50;2227.20;;;;;;4994725;28;20033;-76
2021/01/06 00:07:42;;;;;;;103.32;65.45;;;51.50;2227.20;;;;;;4992362;28;20041;-76
2021/01/06 00:10:11;;;;;;;110.03;68.65;;;51.40;2227.20;;;;;;4991062;28;20022;-76
2021/01/06 00:12:38;;;;;;;106.65;64.93;;;51.40;2227.20;;;;;;4995884;28;20057;-76
2021/01/06 00:15:07;;;;;;;104.75;66.13;;;51.40;2227.20;;;;;;4993362;28;20025;-76
2021/01/06 00:17:33;;;;;;;107.07;63.00;;;51.50;2227.20;;;;;;4992306;28;20027;-76
2021/01/06 00:19:59;;;;;;;93.85;61.60;;;51.40;2227.20;;;;;;4992753;28;20030;-76
2021/01/06 00:22:25;;;;;;;82.40;51.72;;;51.50;2227.20;;;;;;4994117;28;20030;-76
2021/01/06 00:24:51;;;;;;;83.57;54.17;;;51.60;2227.20;;;;;;4995059;28;20089;-75
2021/01/06 00:27:19;;;;;;;90.82;57.03;;;51.50;2227.20;;;;;;4995995;28;20153;-76
2021/01/06 00:29:45;;;;;;;75.18;49.38;;;51.50;2227.20;;;;;;4997149;28;20040;-76
2021/01/06 00:32:12;;;;;;;96.07;52.75;;;51.50;2227.20;;;;;;5014436;28;20018;-76
2021/01/06 00:34:38;;;;;;;71.97;47.35;;;51.50;2227.20;;;;;;5015707;28;20018;-76
2021/01/06 00:37:04;;;;;;;69.38;40.78;;;51.50;2227.20;;;;;;5015235;28;20026;-76
2021/01/06 00:39:32;;;;;;;62.97;37.60;;;51.40;2227.20;;;;;;5013169;28;20116;-75
2021/01/06 00:42:01;;;;;;;70.32;46.53;;;51.40;2227.20;;;;;;5013831;28;20034;-76
2021/01/06 00:44:27;;;;;;;66.70;42.25;;;51.40;2227.20;;;;;;5014577;28;20021;-76
2021/01/06 00:46:53;;;;;;;75.95;42.70;;;51.30;2227.20;;;;;;4996737;28;20342;-76
2021/01/06 00:49:19;;;;;;;64.63;42.20;;;51.30;2227.20;;;;;;4998599;28;20018;-75
2021/01/06 00:51:47;;;;;;;101.72;47.83;;;51.30;2227.20;;;;;;4996887;28;20049;-76
2021/01/06 00:54:13;;;;;;;76.10;43.45;;;51.30;2227.20;;;;;;4997706;28;20206;-75
2021/01/06 00:56:42;;;;;;;62.42;36.30;;;51.30;2227.20;;;;;;5011400;28;20475;-75
2021/01/06 00:59:13;;;;;;;88.10;45.42;;;51.30;2227.20;;;;;;4996382;28;20409;-75
2021/01/06 01:01:39;;;;;;;85.20;47.20;;;51.30;2227.20;;;;;;5014940;28;20068;-75
2021/01/06 01:04:05;;;;;;;45.38;29.80;;;51.30;2227.20;;;;;;5013444;28;20029;-75
2021/01/06 01:06:32;;;;;;;47.80;29.27;;;51.30;2227.20;;;;;;4993667;28;20018;-76
2021/01/06 01:08:59;;;;;;;39.05;28.00;;;51.20;2227.20;;;;;;4997972;28;20565;-75
2021/01/06 01:11:28;;;;;;;45.95;30.25;;;51.30;2227.20;;;;;;5012325;28;20096;-75
2021/01/06 01:13:55;;;;;;;43.28;29.35;;;51.30;2227.20;;;;;;4994817;28;20096;-75
2021/01/06 01:16:23;;;;;;;42.50;26.67;;;51.30;2227.20;;;;;;5012687;28;20029;-75
2021/01/06 01:18:49;;;;;;;44.47;31.20;;;51.30;2227.20;;;;;;5015428;28;20105;-75
2021/01/06 01:21:46;;;;;;;40.13;27.05;;;51.30;2227.20;;;;;;4993008;28;20458;-76
2021/01/06 01:24:12;;;;;;;35.03;25.42;;;51.30;2227.20;;;;;;5013534;28;20053;-76
2021/01/06 01:26:49;;;;;;;34.25;23.17;;;51.60;2227.20;;;;;;5015560;28;20026;-76
2021/01/06 01:29:15;;;;;;;39.58;26.92;;;51.30;2227.20;;;;;;4997183;28;20164;-75
2021/01/06 01:31:41;;;;;;;39.67;25.80;;;51.20;2227.20;;;;;;4994232;28;20090;-76
2021/01/06 01:34:07;;;;;;;43.25;25.90;;;51.20;2227.20;;;;;;5002014;28;20026;-75
2021/01/06 01:36:33;;;;;;;41.95;27.95;;;51.20;2227.20;;;;;;4995677;28;20024;-76
2021/01/06 01:38:59;;;;;;;36.38;24.83;;;51.20;2227.20;;;;;;5006133;28;20053;-76
2021/01/06 01:41:28;;;;;;;37.83;24.20;;;51.20;2227.20;;;;;;5015159;28;20394;-75
2021/01/06 01:43:54;;;;;;;33.00;20.80;;;51.20;2227.20;;;;;;5017114;28;20032;-75
2021/01/06 01:46:37;;;;;;;37.50;23.20;;;51.20;2227.20;;;;;;4991842;28;20148;-76
2021/01/06 01:49:05;;;;;;;33.05;22.52;;;51.20;2227.20;;;;;;5014423;28;20029;-75
2021/01/06 01:51:36;;;;;;;41.17;27.10;;;51.20;2227.20;;;;;;4996982;28;20430;-75
2021/01/06 01:54:08;;;;;;;38.55;24.38;;;51.20;2227.20;;;;;;4993944;28;20026;-76
2021/01/06 01:56:52;;;;;;;34.30;21.48;;;26.50;2201.60;;;;;;4996285;28;20386;-75
2021/01/06 01:59:36;;;;;;;31.73;22.58;;;26.50;2201.60;;;;;;5009926;28;20033;-76
2021/01/06 02:02:10;;;;;;;31.55;21.58;;;26.50;2201.60;;;;;;5015975;28;20037;-76
2021/01/06 02:05:33;;;;;;;;;;;;;;;;;;;;;
2021/01/06 02:08:26;;;;;;;27.90;18.52;;;26.50;2201.60;;;;;;5012124;28;20030;-76
2021/01/06 02:11:29;;;;;;;37.97;22.20;;;26.40;2201.60;;;;;;4978438;28;20041;-76
2021/01/06 02:14:08;;;;;;;27.90;19.13;;;26.40;2201.60;;;;;;4960182;28;20077;-76
2021/01/06 02:16:46;;;;;;;32.42;22.98;;;26.40;2201.60;;;;;;4981910;28;20026;-76
2021/01/06 02:19:15;;;;;;;30.63;21.13;;;26.30;2201.60;;;;;;4997166;28;20048;-75
2021/01/06 02:21:41;;;;;;;28.52;18.55;;;26.30;2201.60;;;;;;5015439;28;20148;-76
2021/01/06 02:24:07;;;;;;;29.20;21.17;;;26.30;2201.60;;;;;;4998618;28;20402;-76
2021/01/06 02:26:34;;;;;;;29.90;18.38;;;26.40;2201.60;;;;;;4998087;28;20030;-75
2021/01/06 02:29:00;;;;;;;36.15;17.88;;;26.40;2201.60;;;;;;5013589;28;20129;-76
2021/01/06 02:31:27;;;;;;;27.52;19.15;;;26.40;2201.60;;;;;;4997250;28;20089;-76
2021/01/06 02:33:54;;;;;;;28.73;18.45;;;26.40;2201.60;;;;;;4998971;28;20113;-75
2021/01/06 02:36:20;;;;;;;22.50;14.82;;;26.40;2201.60;;;;;;4997453;28;20025;-76
2021/01/06 02:38:47;;;;;;;22.27;14.90;;;26.50;2201.60;;;;;;5014357;28;20030;-75
2021/01/06 02:41:14;;;;;;;29.50;19.75;;;51.20;2227.20;;;;;;5013120;28;20342;-76
2021/01/06 02:43:41;;;;;;;24.33;15.43;;;51.40;2227.20;;;;;;4997944;28;20032;-75
2021/01/06 02:46:08;;;;;;;28.80;19.05;;;51.30;2227.20;;;;;;4997463;28;20318;-76
2021/01/06 02:48:35;;;;;;;23.63;16.67;;;51.30;2227.20;;;;;;5014209;28;20034;-76
2021/01/06 02:51:11;;;;;;;22.45;15.55;;;51.30;2227.20;;;;;;5016587;28;20025;-76
2021/01/06 02:53:50;;;;;;;19.20;13.50;;;51.40;2227.20;;;;;;5001352;28;20026;-75
2021/01/06 02:56:19;;;;;;;21.10;14.30;;;51.40;2227.20;;;;;;5014612;28;20025;-76
2021/01/06 02:58:47;;;;;;;18.63;13.77;;;51.50;2227.20;;;;;;5000825;28;20105;-76
2021/01/06 03:01:16;;;;;;;22.00;13.18;;;51.50;2227.20;;;;;;5012940;28;20414;-76
2021/01/06 03:03:43;;;;;;;22.83;12.63;;;51.50;2227.20;;;;;;4996624;28;20021;-76
2021/01/06 03:06:21;;;;;;;18.80;13.25;;;51.60;2227.20;;;;;;5007231;28;20096;-76
2021/01/06 03:08:47;;;;;;;20.50;14.23;;;51.60;2227.20;;;;;;4990560;28;20026;-76
2021/01/06 03:11:13;;;;;;;20.20;13.07;;;51.50;2227.20;;;;;;5014387;28;20492;-76
2021/01/06 03:13:39;;;;;;;20.00;13.40;;;51.50;2227.20;;;;;;4997107;28;20021;-76
2021/01/06 03:16:06;;;;;;;21.13;14.60;;;51.50;2227.20;;;;;;4997544;28;20338;-76
2021/01/06 03:18:31;;;;;;;21.92;14.75;;;51.60;2227.20;;;;;;5015158;28;20112;-76
2021/01/06 03:21:04;;;;;;;22.17;13.27;;;51.70;2227.20;;;;;;5014760;28;20477;-75
2021/01/06 03:23:32;;;;;;;21.25;14.57;;;51.60;2227.20;;;;;;5015068;28;20029;-76
2021/01/06 03:26:04;;;;;;;22.60;13.40;;;51.70;2227.20;;;;;;5015441;28;20072;-76
2021/01/06 03:28:33;;;;;;;16.85;12.90;;;51.60;2227.20;;;;;;5007895;28;20092;-76
2021/01/06 03:31:04;;;;;;;19.95;12.27;;;51.60;2227.20;;;;;;4985302;28;20022;-76
2021/01/06 03:33:39;;;;;;;18.73;13.20;;;51.50;2227.20;;;;;;5011916;28;20331;-76
2021/01/06 03:36:15;;;;;;;18.58;12.38;;;51.60;2227.20;;;;;;5007344;28;20022;-76
2021/01/06 03:38:54;;;;;;;25.63;14.00;;;51.50;2227.20;;;;;;4984478;28;20465;-76
2021/01/06 03:41:20;;;;;;;19.58;13.07;;;51.50;2227.20;;;;;;4987508;28;20053;-76
2021/01/06 03:43:55;;;;;;;23.52;14.90;;;51.60;2227.20;;;;;;5014037;28;20557;-76
2021/01/06 03:46:32;;;;;;;18.52;12.30;;;51.50;2227.20;;;;;;4989219;28;20033;-76
2021/01/06 03:49:28;;;;;;;15.00;10.80;;;51.50;2227.20;;;;;;4999116;28;20033;-77
2021/01/06 03:52:05;;;;;;;18.75;12.30;;;51.60;2227.20;;;;;;5003011;28;20030;-76
2021/01/06 03:54:44;;;;;;;18.27;12.02;;;51.60;2227.20;;;;;;5004387;28;20073;-76
2021/01/06 03:57:13;;;;;;;18.10;11.25;;;51.60;2227.20;;;;;;4995059;28;20034;-76
2021/01/06 03:59:45;;;;;;;20.45;13.32;;;51.70;2227.20;;;;;;5012311;28;20026;-76
2021/01/06 04:02:30;;;;;;;23.73;17.60;;;51.70;2227.20;;;;;;5012781;28;20033;-76
2021/01/06 04:05:18;;;;;;;28.23;18.08;;;51.80;2227.20;;;;;;4995457;28;20339;-76
2021/01/06 04:07:52;;;;;;;51.65;32.03;;;51.80;2227.20;;;;;;5003655;28;20037;-76
2021/01/06 04:10:25;;;;;;;41.20;25.73;;;51.80;2227.20;;;;;;5013573;28;20022;-76
2021/01/06 04:12:53;;;;;;;37.70;22.35;;;51.80;2227.20;;;;;;4998174;28;20033;-76
2021/01/06 04:15:19;;;;;;;41.25;28.17;;;51.80;2227.20;;;;;;4997503;28;20026;-75
2021/01/06 04:17:51;;;;;;;26.10;19.63;;;51.80;2227.20;;;;;;4997859;28;20524;-75
2021/01/06 04:20:34;;;;;;;17.23;12.57;;;51.80;2227.20;;;;;;5011538;28;20030;-76
2021/01/06 04:23:15;;;;;;;19.40;13.05;;;51.80;2227.20;;;;;;5013825;28;20033;-76
2021/01/06 04:26:09;;;;;;;17.25;12.48;;;51.80;2227.20;;;;;;4980388;28;20036;-75
2021/01/06 04:28:36;;;;;;;17.58;12.27;;;51.80;2227.20;;;;;;4996759;28;21189;-76
2021/01/06 04:31:13;;;;;;;19.02;16.15;;;51.90;2227.20;;;;;;4991518;28;20397;-76
2021/01/06 04:33:53;;;;;;;22.40;15.32;;;51.90;2227.20;;;;;;5011012;28;20240;-75
2021/01/06 04:36:50;;;;;;;22.15;16.85;;;51.90;2227.20;;;;;;5000957;28;20108;-76
2021/01/06 04:39:16;;;;;;;38.22;25.95;;;52.00;2227.20;;;;;;4988601;28;20084;-76
2021/01/06 04:41:57;;;;;;;27.77;22.50;;;52.00;2227.20;;;;;;5016969;28;20026;-76
2021/01/06 04:44:47;;;;;;;32.20;28.48;;;52.00;2227.20;;;;;;5002010;28;20397;-76
2021/01/06 04:47:38;;;;;;;21.02;16.08;;;52.00;2227.20;;;;;;5014799;28;20026;-76
2021/01/06 04:50:28;;;;;;;24.35;18.33;;;52.00;2227.20;;;;;;5016914;28;20042;-75
2021/01/06 04:53:05;;;;;;;25.88;19.70;;;52.00;2227.20;;;;;;5016193;28;20125;-76
2021/01/06 04:55:58;;;;;;;39.25;28.90;;;52.00;2227.20;;;;;;4989556;28;20429;-76
2021/01/06 04:58:36;;;;;;;73.55;54.28;;;52.00;2227.20;;;;;;5016861;28;20500;-76
2021/01/06 05:01:21;;;;;;;31.90;24.30;;;52.00;2227.20;;;;;;5012641;28;20054;-76
2021/01/06 05:03:57;;;;;;;57.38;40.65;;;52.00;2227.20;;;;;;5007715;28;20032;-76
2021/01/06 05:06:41;;;;;;;20.80;16.40;;;52.00;2227.20;;;;;;4999809;28;20071;-75
2021/01/06 05:09:42;;;;;;;17.90;13.23;;;52.00;2227.20;;;;;;5008748;28;20469;-75
2021/01/06 05:12:33;;;;;;;27.20;20.95;;;52.00;2227.20;;;;;;4984896;28;20042;-76
2021/01/06 05:15:36;;;;;;;17.33;13.18;;;51.90;2227.20;;;;;;4994854;28;20072;-76
2021/01/06 05:18:05;;;;;;;16.70;13.30;;;52.00;2227.20;;;;;;5014984;28;20030;-76
2021/01/06 05:20:33;;;;;;;23.42;12.50;;;52.00;2227.20;;;;;;5000626;28;20030;-76
2021/01/06 05:23:01;;;;;;;18.85;14.30;;;52.00;2227.20;;;;;;5000201;28;20414;-76
2021/01/06 05:25:29;;;;;;;18.75;13.95;;;51.90;2227.20;;;;;;5009136;28;20022;-76
2021/01/06 05:27:55;;;;;;;18.42;12.98;;;52.00;2227.20;;;;;;5012888;28;20054;-76
2021/01/06 05:30:28;;;;;;;18.73;14.20;;;52.00;2227.20;;;;;;4997815;28;20462;-76
2021/01/06 05:32:59;;;;;;;18.98;14.35;;;52.00;2227.20;;;;;;5014104;28;20116;-76
2021/01/06 05:35:35;;;;;;;17.35;13.13;;;52.00;2227.20;;;;;;4999163;28;20029;-76
2021/01/06 05:38:03;;;;;;;22.02;15.50;;;52.00;2227.20;;;;;;5014525;28;20435;-76
2021/01/06 05:40:32;;;;;;;21.20;15.35;;;52.00;2227.20;;;;;;5007219;28;20052;-76
2021/01/06 05:43:00;;;;;;;22.02;14.43;;;52.00;2227.20;;;;;;5005963;28;20117;-76
2021/01/06 05:45:38;;;;;;;20.27;12.45;;;52.00;2227.20;;;;;;5005717;28;20038;-76
2021/01/06 05:48:30;;;;;;;21.98;15.13;;;52.10;2227.20;;;;;;4988686;28;20140;-76
2021/01/06 05:51:07;;;;;;;16.27;11.75;;;52.10;2227.20;;;;;;4992551;28;20100;-76
2021/01/06 05:53:58;;;;;;;23.73;12.00;;;76.80;2227.20;;;;;;4992791;28;20018;-76
2021/01/06 05:56:51;;;;;;;16.15;11.70;;;76.80;2227.20;;;;;;4980759;28;20061;-75
2021/01/06 05:59:40;;;;;;;17.02;12.25;;;76.90;2227.20;;;;;;5016760;28;20033;-76
2021/01/06 06:02:23;;;;;;;14.77;11.30;;;77.00;2227.20;;;;;;5015334;28;20030;-76
2021/01/06 06:05:26;;;;;;;15.57;11.57;;;77.00;2227.20;;;;;;5015710;28;20026;-76
2021/01/06 06:08:02;;;;;;;29.58;18.23;;;77.10;2227.20;;;;;;4996156;28;20040;-76
2021/01/06 06:10:55;;;;;;;23.58;15.00;;;77.10;2227.20;;;;;;5002041;28;20018;-76
2021/01/06 06:13:39;;;;;;;17.42;12.00;;;77.20;2227.20;;;;;;5016291;28;20386;-76
2021/01/06 06:16:39;;;;;;;14.68;9.95;;;77.30;2227.20;;;;;;4980446;28;20025;-76
2021/01/06 06:19:32;;;;;;;15.13;9.25;;;77.40;2227.20;;;;;;5007557;28;20034;-76
2021/01/06 06:22:32;;;;;;;24.67;17.60;;;77.40;2227.20;;;;;;4996250;28;20033;-76
2021/01/06 06:25:29;;;;;;;19.58;13.27;;;77.50;2227.20;;;;;;4991279;28;20431;-76
2021/01/06 06:28:20;;;;;;;230.13;119.10;;;77.50;2227.20;;;;;;4990062;28;20057;-76
2021/01/06 06:31:17;;;;;;;92.10;51.20;;;77.60;2227.20;;;;;;4998222;28;20036;-76
2021/01/06 06:33:43;;;;;;;40.38;26.02;;;77.60;2227.20;;;;;;5018620;28;20026;-76
2021/01/06 06:36:23;;;;;;;29.08;19.00;;;77.70;2227.20;;;;;;5017538;28;20026;-76
2021/01/06 06:38:50;;;;;;;23.80;17.15;;;77.70;2227.20;;;;;;5001284;28;20030;-77
2021/01/06 06:41:22;;;;;;;17.58;11.68;;;102.40;2227.20;;;;;;4998890;28;20500;-76
2021/01/06 06:43:51;;;;;;;16.98;13.55;;;102.40;2227.20;;;;;;5015494;28;20084;-76
2021/01/06 06:46:41;;;;;;;20.67;14.25;;;102.40;2227.20;;;;;;5015959;28;20022;-76
2021/01/06 06:49:48;;;;;;;21.95;14.45;;;102.50;2227.20;;;;;;4997167;28;20138;-76
2021/01/06 06:52:38;;;;;;;16.73;11.85;;;102.50;2227.20;;;;;;5017846;28;20045;-76
2021/01/06 06:55:22;;;;;;;17.52;14.73;;;102.60;2227.20;;;;;;4999219;28;20476;-76
2021/01/06 06:58:12;;;;;;;21.88;19.48;;;102.60;2227.20;;;;;;4983492;28;20129;-76
2021/01/06 07:00:38;;;;;;;18.73;15.65;;;102.60;2227.20;;;;;;4996112;28;20022;-76
2021/01/06 07:03:06;;;;;;;20.95;14.73;;;102.70;2227.20;;;;;;5014414;28;20029;-76
2021/01/06 07:05:46;;;;;;;17.90;12.48;;;102.70;2227.20;;;;;;4980995;28;20026;-76
2021/01/06 07:08:35;;;;;;;25.33;18.20;;;102.80;2227.20;;;;;;5009191;28;20120;-76
2021/01/06 07:11:21;;;;;;;19.70;13.50;;;102.80;2227.20;;;;;;5017317;28;20426;-76
2021/01/06 07:14:15;;;;;;;25.30;16.63;;;102.90;2227.20;;;;;;5000067;28;20025;-76
2021/01/06 07:17:03;;;;;;;19.58;14.60;;;102.90;2227.20;;;;;;5009156;28;20496;-76
2021/01/06 07:19:35;;;;;;;35.63;29.73;;;102.90;2227.20;;;;;;5001686;28;20034;-76
2021/01/06 07:22:24;;;;;;;25.08;17.33;;;102.90;2227.20;;;;;;4998212;28;20315;-76
2021/01/06 07:24:57;;;;;;;18.08;13.82;;;103.00;2227.20;;;;;;4992892;28;20087;-76
2021/01/06 07:27:30;;;;;;;18.67;12.95;;;103.00;2227.20;;;;;;5002459;28;20056;-76
2021/01/06 07:29:56;;;;;;;17.50;13.43;;;103.10;2227.20;;;;;;4989905;28;20104;-76
2021/01/06 07:32:35;;;;;;;18.20;13.55;;;103.20;2227.20;;;;;;4998675;28;20025;-76
2021/01/06 07:35:09;;;;;;;18.38;12.60;;;103.30;2227.20;;;;;;4996430;28;20525;-76
2021/01/06 07:37:45;;;;;;;23.58;16.83;;;128.00;2252.80;;;;;;5005069;28;20041;-76
2021/01/06 07:40:29;;;;;;;20.27;15.23;;;128.10;2252.80;;;;;;5012560;28;20121;-76
2021/01/06 07:43:17;;;;;;;24.65;16.58;;;128.20;2252.80;;;;;;5012824;28;20052;-76
2021/01/06 07:45:53;;;;;;;19.77;13.68;;;128.20;2252.80;;;;;;5008662;28;20030;-76
2021/01/06 07:48:53;;;;;;;32.25;19.52;;;128.30;2252.80;;;;;;5012721;28;20026;-76
2021/01/06 07:51:34;;;;;;;17.75;12.10;;;128.30;2252.80;;;;;;4950967;28;20038;-76
2021/01/06 07:54:12;;;;;;;27.17;20.60;;;128.30;2252.80;;;;;;5005261;28;20014;-76
2021/01/06 07:56:47;;;;;;;38.83;26.80;;;128.30;2252.80;;;;;;4996831;28;20038;-76
2021/01/06 07:59:21;;;;;;;;;;;128.30;2252.80;;;;;;5014843;28;20018;-76
2021/01/06 08:01:56;;;;;;;24.23;16.23;;;128.30;2252.80;;;;;;4996788;28;19960;-76
2021/01/06 08:04:37;;;;;;;21.90;16.77;;;128.30;2252.80;;;;;;4994931;28;20419;-76
2021/01/06 08:07:07;;;;;;;20.40;15.13;;;128.40;2252.80;;;;;;4989826;28;20030;-76
2021/01/06 08:09:41;;;;;;;20.08;15.60;;;128.40;2252.80;;;;;;5009050;28;20014;-76
2021/01/06 08:12:37;;;;;;;21.83;16.55;;;128.50;2252.80;;;;;;4981832;28;20023;-76
2021/01/06 08:15:19;;;;;;;22.77;18.45;;;128.60;2252.80;;;;;;5003079;28;20323;-76
2021/01/06 08:18:12;;;;;;;27.05;17.80;;;128.60;2252.80;;;;;;5020034;28;20026;-76
2021/01/06 08:21:05;;;;;;;21.17;18.10;;;128.60;2252.80;;;;;;5016497;28;20453;-76
2021/01/06 08:23:58;;;;;;;24.95;17.92;;;128.70;2252.80;;;;;;4985155;28;20037;-76
2021/01/06 08:26:29;;;;;;;24.70;17.77;;;128.70;2252.80;;;;;;5011816;28;20434;-77
2021/01/06 08:29:34;;;;;;;25.45;18.35;;;128.80;2252.80;;;;;;5018130;28;20050;-76
2021/01/06 08:32:19;;;;;;;42.38;26.33;;;128.90;2252.80;;;;;;4925739;29;20095;-76
2021/01/06 08:35:02;;;;;;;41.47;30.15;;;128.90;2252.80;;;;;;5000463;28;20145;-77
2021/01/06 08:37:34;;;;;;;34.03;23.30;;;128.90;2252.80;;;;;;5003379;28;20401;-76
2021/01/06 08:40:04;;;;;;;135.93;78.07;;;153.60;2252.80;;;;;;5001866;28;20358;-76
2021/01/06 08:42:50;;;;;;;26.38;17.70;;;153.60;2252.80;;;;;;4995606;28;20030;-76
2021/01/06 08:45:32;;;;;;;50.13;35.92;;;153.70;2252.80;;;;;;5001268;28;20038;-76
2021/01/06 08:48:33;;;;;;;68.55;45.80;;;153.60;2252.80;;;;;;5019171;28;20092;-76
2021/01/06 08:51:11;;;;;;;44.20;29.75;;;153.60;2252.80;;;;;;5003585;28;20387;-76
2021/01/06 08:53:42;;;;;;;46.95;29.95;;;153.60;2252.80;;;;;;5020372;28;20026;-77
2021/01/06 08:56:25;;;;;;;46.08;30.98;;;153.60;2252.80;;;;;;5002718;28;20037;-77
2021/01/06 08:58:54;;;;;;;109.38;59.78;;;153.70;2252.80;;;;;;5007134;28;20069;-76
2021/01/06 09:01:47;;;;;;;53.40;33.85;;;153.70;2252.80;;;;;;4995474;28;20026;-76
2021/01/06 09:04:20;;;;;;;85.20;49.53;;;153.80;2252.80;;;;;;5002488;28;20030;-76
2021/01/06 09:07:15;;;;;;;30.88;18.73;;;153.80;2252.80;;;;;;5007818;28;20084;-77
2021/01/06 09:10:01;;;;;;;29.80;18.67;;;153.80;2252.80;;;;;;4980056;28;20082;-76
2021/01/06 09:12:32;;;;;;;44.17;28.50;;;153.80;2252.80;;;;;;5003811;28;20267;-77
2021/01/06 09:14:59;;;;;;;41.60;27.95;;;153.90;2252.80;;;;;;5016073;28;20052;-76
2021/01/06 09:17:49;;;;;;;34.72;24.63;;;154.00;2252.80;;;;;;5006005;28;20076;-77
2021/01/06 09:20:23;;;;;;;40.53;27.13;;;154.00;2252.80;;;;;;5008128;28;20033;-77
2021/01/06 09:22:50;;;;;;;40.10;28.02;;;153.90;2252.80;;;;;;5009626;28;20030;-77
2021/01/06 09:25:22;;;;;;;33.92;22.90;;;153.90;2252.80;;;;;;5002896;28;20026;-77
2021/01/06 09:27:50;;;;;;;35.55;24.70;;;153.90;2252.80;;;;;;5012875;28;20042;-77
2021/01/06 09:30:16;;;;;;;38.15;26.52;;;153.90;2252.80;;;;;;5015039;28;20335;-77
2021/01/06 09:32:46;;;;;;;43.42;29.58;;;153.90;2252.80;;;;;;5005018;28;20029;-76
2021/01/06 09:35:17;;;;;;;37.08;24.38;;;154.00;2252.80;;;;;;5023119;28;20025;-76
2021/01/06 09:37:58;;;;;;;43.63;31.58;;;154.00;2252.80;;;;;;5000629;28;20021;-76
2021/01/06 09:40:30;;;;;;;54.40;37.78;;;154.00;2252.80;;;;;;5013417;28;20022;-76
2021/01/06 09:43:19;;;;;;;49.17;35.17;;;153.90;2252.80;;;;;;4997478;28;20027;-76
2021/01/06 09:45:45;;;;;;;42.80;29.45;;;153.90;2252.80;;;;;;4992465;28;20480;-76
2021/01/06 09:48:13;;;;;;;35.08;25.88;;;154.00;2252.80;;;;;;5001537;28;20032;-77
2021/01/06 09:50:45;;;;;;;33.95;25.40;;;154.00;2252.80;;;;;;5018344;28;20423;-76
2021/01/06 09:53:15;;;;;;;34.13;28.00;;;154.10;2252.80;;;;;;5019504;28;20033;-76
2021/01/06 09:55:44;;;;;;;36.50;27.35;;;154.30;2252.80;;;;;;5003498;28;20434;-76
2021/01/06 09:58:38;;;;;;;35.30;26.85;;;154.30;2252.80;;;;;;4985518;28;20026;-76
2021/01/06 10:01:24;;;;;;;33.30;24.98;;;154.40;2252.80;;;;;;4986274;28;20160;-76
2021/01/06 10:03:55;;;;;;;48.63;31.70;;;154.50;2252.80;;;;;;5000447;28;20030;-76
2021/01/06 10:07:09;;;;;;;50.22;33.40;;;154.50;2252.80;;;;;;5001755;28;20026;-76
2021/01/06 10:09:44;;;;;;;41.40;30.50;;;154.50;2252.80;;;;;;4929116;28;20039;-77
2021/01/06 10:12:45;;;;;;;35.50;27.42;;;179.20;2252.80;;;;;;5020950;28;20385;-76
2021/01/06 10:15:27;;;;;;;45.97;33.92;;;154.50;2252.80;;;;;;4961307;28;20038;-76
2021/01/06 10:18:15;;;;;;;68.63;47.03;;;179.20;2252.80;;;;;;5005621;28;20076;-76
2021/01/06 10:21:24;;;;;;;75.03;51.55;;;154.50;2252.80;;;;;;4988772;28;20113;-76
2021/01/06 10:24:12;;;;;;;69.05;45.97;;;154.50;2252.80;;;;;;4983437;28;20030;-76
2021/01/06 10:26:50;;;;;;;66.20;47.20;;;154.30;2252.80;;;;;;5001277;28;20069;-76
2021/01/06 10:29:21;;;;;;;72.22;47.38;;;154.30;2252.80;;;;;;5020648;28;20096;-76
2021/01/06 10:32:11;;;;;;;48.88;36.95;;;154.30;2252.80;;;;;;5002812;28;20049;-77
2021/01/06 10:35:05;;;;;;;47.88;37.85;;;154.30;2252.80;;;;;;5019262;28;20042;-76
2021/01/06 10:37:32;;;;;;;35.25;27.38;;;154.40;2252.80;;;;;;5013163;28;20076;-76
2021/01/06 10:40:13;;;;;;;40.85;30.35;;;154.40;2252.80;;;;;;4991753;28;20030;-76
2021/01/06 10:42:39;;;;;;;33.53;26.58;;;154.40;2252.80;;;;;;4999043;28;20112;-76
2021/01/06 10:45:10;;;;;;;33.22;24.42;;;154.40;2252.80;;;;;;5017734;28;20060;-76
2021/01/06 10:47:42;;;;;;;36.58;28.58;;;154.40;2252.80;;;;;;5017324;28;20049;-76
2021/01/06 10:50:23;;;;;;;59.08;41.53;;;154.40;2252.80;;;;;;4996898;28;20049;-76
2021/01/06 10:53:12;;;;;;;35.20;25.77;;;154.30;2252.80;;;;;;5013954;28;20354;-76
2021/01/06 10:56:22;;;;;;;47.38;26.25;;;154.30;2252.80;;;;;;5003760;28;20024;-76
2021/01/06 10:58:51;;;;;;;41.80;34.30;;;154.30;2252.80;;;;;;4989496;28;20069;-76
2021/01/06 11:01:46;;;;;;;38.75;29.00;;;154.30;2252.80;;;;;;4994828;28;20100;-76
2021/01/06 11:04:20;;;;;;;38.15;27.17;;;154.20;2252.80;;;;;;5003139;28;20034;-76
2021/01/06 11:06:53;;;;;;;28.95;23.45;;;154.30;2252.80;;;;;;5018173;28;20498;-76
2021/01/06 11:09:40;;;;;;;47.22;29.27;;;154.30;2252.80;;;;;;4997609;28;20096;-76
2021/01/06 11:12:21;;;;;;;38.08;31.27;;;154.30;2252.80;;;;;;5015369;28;20116;-76
2021/01/06 11:15:13;;;;;;;61.72;51.63;;;154.30;2252.80;;;;;;4990430;28;20030;-76
2021/01/06 11:17:43;;;;;;;63.40;53.80;;;154.30;2252.80;;;;;;5015849;28;20049;-76
2021/01/06 11:20:33;;;;;;;76.75;51.47;;;154.30;2252.80;;;;;;5018720;28;20021;-76
2021/01/06 11:23:22;;;;;;;50.97;35.50;;;154.30;2252.80;;;;;;5020252;28;20032;-76
2021/01/06 11:25:55;;;;;;;84.78;67.80;;;154.40;2252.80;;;;;;4990151;28;20514;-76
2021/01/06 11:28:43;;;;;;;106.18;87.40;;;179.20;2252.80;;;;;;5001230;28;20484;-76
2021/01/06 11:31:18;;;;;;;111.07;93.65;;;179.30;2252.80;;;;;;4984350;28;20030;-76
2021/01/06 11:33:48;;;;;;;63.63;47.97;;;179.50;2252.80;;;;;;5019971;28;20018;-76
2021/01/06 11:36:53;;;;;;;50.40;30.45;;;179.50;2252.80;;;;;;5018873;28;20448;-76
2021/01/06 11:39:38;;;;;;;44.10;27.88;;;179.50;2252.80;;;;;;5020081;28;20022;-76
2021/01/06 11:42:18;;;;;;;34.40;24.07;;;179.50;2252.80;;;;;;4982468;28;20057;-76
2021/01/06 11:45:02;;;;;;;31.42;22.40;;;179.40;2252.80;;;;;;5001155;28;20025;-76
2021/01/06 11:47:31;;;;;;;35.83;27.90;;;179.50;2252.80;;;;;;4998269;28;20025;-77
2021/01/06 11:50:04;;;;;;;30.58;24.83;;;179.50;2252.80;;;;;;5001126;28;20072;-76
2021/01/06 11:52:47;;;;;;;35.85;26.25;;;179.60;2252.80;;;;;;5019522;28;20022;-76
2021/01/06 11:55:34;;;;;;;44.78;30.63;;;179.60;2252.80;;;;;;5019841;28;20045;-76
2021/01/06 11:58:12;;;;;;;34.58;23.23;;;179.70;2252.80;;;;;;5008259;28;20026;-76
2021/01/06 12:00:44;;;;;;;26.88;22.02;;;179.70;2252.80;;;;;;5002158;28;20445;-76
2021/01/06 12:03:13;;;;;;;39.42;29.58;;;179.70;2252.80;;;;;;4999871;28;20038;-76
2021/01/06 12:06:03;;;;;;;48.88;35.83;;;179.70;2252.80;;;;;;4993816;28;20644;-76
2021/01/06 12:08:40;;;;;;;25.80;20.77;;;179.70;2252.80;;;;;;5015177;28;20034;-76
2021/01/06 12:11:25;;;;;;;20.70;16.15;;;179.70;2252.80;;;;;;4986356;28;20057;-76
2021/01/06 12:14:12;;;;;;;23.00;19.20;;;179.70;2252.80;;;;;;5004639;28;20033;-76
2021/01/06 12:16:59;;;;;;;22.27;17.80;;;179.60;2252.80;;;;;;5000215;28;20025;-76
2021/01/06 12:20:03;;;;;;;27.95;21.95;;;179.50;2252.80;;;;;;4997297;28;20319;-76
2021/01/06 12:22:29;;;;;;;30.65;23.30;;;179.50;2252.80;;;;;;4996450;28;20033;-76
2021/01/06 12:25:23;;;;;;;29.92;22.65;;;179.40;2252.80;;;;;;4997635;28;20022;-76
2021/01/06 12:28:02;;;;;;;31.90;21.08;;;179.50;2252.80;;;;;;4988159;28;20047;-76
2021/01/06 12:30:39;;;;;;;37.67;28.05;;;179.50;2252.80;;;;;;5000473;28;20087;-76
2021/01/06 12:33:31;;;;;;;26.85;19.60;;;179.50;2252.80;;;;;;5017387;28;20045;-76
2021/01/06 12:36:11;;;;;;;24.17;18.85;;;179.50;2252.80;;;;;;5012923;28;20048;-76
2021/01/06 12:38:38;;;;;;;26.50;20.67;;;179.40;2252.80;;;;;;5018426;28;20029;-76
2021/01/06 12:41:04;;;;;;;29.33;22.67;;;179.40;2252.80;;;;;;5001179;28;20026;-76
2021/01/06 12:43:38;;;;;;;28.17;23.48;;;179.40;2252.80;;;;;;5016490;28;20044;-76
2021/01/06 12:46:19;;;;;;;31.60;23.35;;;179.40;2252.80;;;;;;4990833;28;20049;-76
2021/01/06 12:49:02;;;;;;;22.48;17.85;;;179.40;2252.80;;;;;;5015948;28;20104;-76
2021/01/06 12:51:32;;;;;;;26.35;20.38;;;179.40;2252.80;;;;;;5000631;28;20022;-76
2021/01/06 12:54:07;;;;;;;30.25;20.65;;;179.50;2252.80;;;;;;5014123;28;20029;-76
2021/01/06 12:56:49;;;;;;;28.95;22.13;;;179.50;2252.80;;;;;;5015417;28;20430;-76